Udo Maru — JM6522 — position and weather

sailwx.info

Track history (hours):
 
Tides and Currents Weather Stations Pressure Air Temp Water Temp Dewpoint Dewpoint Depression Visibility Wind Speed Wind Dir Waves Ship Positions

Udo Maru

Last reported at 2014-Jul-31 09:30 UTC. Time now 2014-Jul-31 13:38 UTC.
Position N 33°57' E 132°41'.

Length 87 m; draft 4.9 m.

Type: Ship (hazmat cat A). MMSI: 431600499.

Date/timePositionNaut miles runAvg speedWind from/ knotsBaromVisibWave heightAir tempDewpointWater temp
2014-Jul-31 09:30N 33°57' E 132°41'117 2.6
2014-Jul-29 12:07N 34°37' E 134°54'814.0
2014-Jul-29 11:33N 34°36' E 135°04'1212.0
2014-Jul-29 10:33N 34°24' E 135°03'1211.8
2014-Jul-29 09:33N 34°13' E 134°60'220 9.5
2014-Jul-28 10:27N 34°53' E 139°22'1010.8
2014-Jul-28 09:33N 34°60' E 139°31'1110.9
2014-Jul-28 08:33N 35°07' E 139°41'1010.1
2014-Jul-28 07:33N 35°16' E 139°46'9 9.4
2014-Jul-28 06:33N 35°26' E 139°45'6 6.5
2014-Jul-28 05:33N 35°22' E 139°51'0 0.0
2014-Jul-28 04:34N 35°22' E 139°51'0 0.0
2014-Jul-28 03:34N 35°22' E 139°51'0 0.0
2014-Jul-28 02:34N 35°22' E 139°51'0 0.0
2014-Jul-28 01:33N 35°22' E 139°51'0 0.0
2014-Jul-28 00:33N 35°22' E 139°51'2 1.7
2014-Jul-27 23:33N 35°22' E 139°49'0 0.5
2014-Jul-27 22:34N 35°23' E 139°49'0 0.0
2014-Jul-27 21:33N 35°23' E 139°49'0 0.0
2014-Jul-27 20:33N 35°23' E 139°49'0 0.0
2014-Jul-27 19:33N 35°23' E 139°49'0 0.0
2014-Jul-27 18:33N 35°23' E 139°49'0 0.1
2014-Jul-27 17:34N 35°23' E 139°49'0 0.0
2014-Jul-27 16:33N 35°23' E 139°49'0 0.0
2014-Jul-27 15:34N 35°23' E 139°49'0 0.0
2014-Jul-27 14:34N 35°23' E 139°49'0 0.0
2014-Jul-27 13:34N 35°23' E 139°49'0 0.0
2014-Jul-27 12:34N 35°23' E 139°49'0 0.0
2014-Jul-27 11:34N 35°23' E 139°49'0 0.0
2014-Jul-27 10:33N 35°23' E 139°49'0 0.0
2014-Jul-27 09:33N 35°23' E 139°49'0 0.1
2014-Jul-27 08:33N 35°23' E 139°49'0 0.0
2014-Jul-27 07:33N 35°23' E 139°49'0 0.0
2014-Jul-27 06:33N 35°23' E 139°49'0 0.0
2014-Jul-27 05:33N 35°23' E 139°49'0 0.0
2014-Jul-27 04:33N 35°23' E 139°49'0 0.0
2014-Jul-27 03:33N 35°23' E 139°49'0 0.0
2014-Jul-27 02:34N 35°23' E 139°49'0 0.0
2014-Jul-27 01:33N 35°23' E 139°49'0 0.0
2014-Jul-27 00:33N 35°23' E 139°49'0 0.0
2014-Jul-26 23:33N 35°23' E 139°49'0 0.0
2014-Jul-26 22:33N 35°23' E 139°49'0 0.0
2014-Jul-26 21:33N 35°23' E 139°49'0 0.0
2014-Jul-26 20:33N 35°23' E 139°49'0 0.0
2014-Jul-26 19:33N 35°23' E 139°49'0 0.0
2014-Jul-26 18:33N 35°23' E 139°49'0 0.0
2014-Jul-26 17:34N 35°23' E 139°49'0 0.0
2014-Jul-26 16:33N 35°23' E 139°49'0 0.0
2014-Jul-26 15:33N 35°23' E 139°49'0 0.0
2014-Jul-26 14:34N 35°23' E 139°49'0 0.0
2014-Jul-26 13:34N 35°23' E 139°49'0 0.0
2014-Jul-26 12:33N 35°23' E 139°49'0 0.0
2014-Jul-26 11:33N 35°23' E 139°49'0 0.0
2014-Jul-26 10:33N 35°23' E 139°49'0 0.0
2014-Jul-26 09:33N 35°23' E 139°49'0 0.2
2014-Jul-26 08:34N 35°23' E 139°49'9 9.2
2014-Jul-26 07:33N 35°31' E 139°54'1010.5
2014-Jul-26 06:33N 35°36' E 140°05'1 0.5
2014-Jul-26 05:33N 35°37' E 140°05'0 0.0
2014-Jul-26 04:33N 35°37' E 140°05'0 0.0
2014-Jul-26 03:33N 35°37' E 140°05'0 0.2
2014-Jul-26 02:34N 35°37' E 140°05'6 6.0
2014-Jul-26 01:34N 35°39' E 139°58'2 2.0
2014-Jul-26 00:32N 35°41' E 139°57'0 0.0
2014-Jul-25 23:32N 35°41' E 139°57'0 0.1
2014-Jul-25 22:32N 35°41' E 139°57'4 3.7
2014-Jul-25 21:29N 35°37' E 139°58'0 0.0
2014-Jul-25 20:29N 35°37' E 139°58'0 0.0
2014-Jul-25 19:32N 35°37' E 139°58'0 0.0
2014-Jul-25 18:29N 35°37' E 139°58'0 0.0
2014-Jul-25 17:32N 35°37' E 139°58'0 0.0
2014-Jul-25 16:32N 35°37' E 139°58'0 0.0
2014-Jul-25 15:23N 35°37' E 139°58'0 0.0
2014-Jul-25 14:22N 35°37' E 139°58'5 5.6
2014-Jul-25 13:33N 35°33' E 139°55'1111.3
2014-Jul-25 12:33N 35°24' E 139°46'1010.0
2014-Jul-25 11:33N 35°14' E 139°47'1111.0
2014-Jul-25 10:33N 35°04' E 139°42'1312.3
2014-Jul-25 09:28N 34°56' E 139°29'228 9.5
2014-Jul-24 09:31N 34°01' E 135°01'1010.6
2014-Jul-24 08:33N 34°11' E 134°59'1010.2
2014-Jul-24 07:32N 34°21' E 134°59'1110.7
2014-Jul-24 06:32N 34°32' E 135°02'7 6.8
2014-Jul-24 05:33N 34°35' E 134°55'  
Track history (hours):
 
Tides and Currents Weather Stations Pressure Air Temp Water Temp Dewpoint Dewpoint Depression Visibility Wind Speed Wind Dir Waves Ship Positions

Udo Maru

Last reported at 2014-Jul-31 09:30 UTC. Time now 2014-Jul-31 13:38 UTC.
Position N 33°57' E 132°41'.

Length 87 m; draft 4.9 m.

Type: Ship (hazmat cat A). MMSI: 431600499.

Date/timePositionNaut miles runAvg speedWind from/ knotsBaromVisibWave heightAir tempDewpointWater temp
2014-Jul-31 09:30N 33°57' E 132°41'117 2.6
2014-Jul-29 12:07N 34°37' E 134°54'814.0
2014-Jul-29 11:33N 34°36' E 135°04'1212.0
2014-Jul-29 10:33N 34°24' E 135°03'1211.8
2014-Jul-29 09:33N 34°13' E 134°60'220 9.5
2014-Jul-28 10:27N 34°53' E 139°22'1010.8
2014-Jul-28 09:33N 34°60' E 139°31'1110.9
2014-Jul-28 08:33N 35°07' E 139°41'1010.1
2014-Jul-28 07:33N 35°16' E 139°46'9 9.4
2014-Jul-28 06:33N 35°26' E 139°45'6 6.5
2014-Jul-28 05:33N 35°22' E 139°51'0 0.0
2014-Jul-28 04:34N 35°22' E 139°51'0 0.0
2014-Jul-28 03:34N 35°22' E 139°51'0 0.0
2014-Jul-28 02:34N 35°22' E 139°51'0 0.0
2014-Jul-28 01:33N 35°22' E 139°51'0 0.0
2014-Jul-28 00:33N 35°22' E 139°51'2 1.7
2014-Jul-27 23:33N 35°22' E 139°49'0 0.5
2014-Jul-27 22:34N 35°23' E 139°49'0 0.0
2014-Jul-27 21:33N 35°23' E 139°49'0 0.0
2014-Jul-27 20:33N 35°23' E 139°49'0 0.0
2014-Jul-27 19:33N 35°23' E 139°49'0 0.0
2014-Jul-27 18:33N 35°23' E 139°49'0 0.1
2014-Jul-27 17:34N 35°23' E 139°49'0 0.0
2014-Jul-27 16:33N 35°23' E 139°49'0 0.0
2014-Jul-27 15:34N 35°23' E 139°49'0 0.0
2014-Jul-27 14:34N 35°23' E 139°49'0 0.0
2014-Jul-27 13:34N 35°23' E 139°49'0 0.0
2014-Jul-27 12:34N 35°23' E 139°49'0 0.0
2014-Jul-27 11:34N 35°23' E 139°49'0 0.0
2014-Jul-27 10:33N 35°23' E 139°49'0 0.0
2014-Jul-27 09:33N 35°23' E 139°49'0 0.1
2014-Jul-27 08:33N 35°23' E 139°49'0 0.0
2014-Jul-27 07:33N 35°23' E 139°49'0 0.0
2014-Jul-27 06:33N 35°23' E 139°49'0 0.0
2014-Jul-27 05:33N 35°23' E 139°49'0 0.0
2014-Jul-27 04:33N 35°23' E 139°49'0 0.0
2014-Jul-27 03:33N 35°23' E 139°49'0 0.0
2014-Jul-27 02:34N 35°23' E 139°49'0 0.0
2014-Jul-27 01:33N 35°23' E 139°49'0 0.0
2014-Jul-27 00:33N 35°23' E 139°49'0 0.0
2014-Jul-26 23:33N 35°23' E 139°49'0 0.0
2014-Jul-26 22:33N 35°23' E 139°49'0 0.0
2014-Jul-26 21:33N 35°23' E 139°49'0 0.0
2014-Jul-26 20:33N 35°23' E 139°49'0 0.0
2014-Jul-26 19:33N 35°23' E 139°49'0 0.0
2014-Jul-26 18:33N 35°23' E 139°49'0 0.0
2014-Jul-26 17:34N 35°23' E 139°49'0 0.0
2014-Jul-26 16:33N 35°23' E 139°49'0 0.0
2014-Jul-26 15:33N 35°23' E 139°49'0 0.0
2014-Jul-26 14:34N 35°23' E 139°49'0 0.0
2014-Jul-26 13:34N 35°23' E 139°49'0 0.0
2014-Jul-26 12:33N 35°23' E 139°49'0 0.0
2014-Jul-26 11:33N 35°23' E 139°49'0 0.0
2014-Jul-26 10:33N 35°23' E 139°49'0 0.0
2014-Jul-26 09:33N 35°23' E 139°49'0 0.2
2014-Jul-26 08:34N 35°23' E 139°49'9 9.2
2014-Jul-26 07:33N 35°31' E 139°54'1010.5
2014-Jul-26 06:33N 35°36' E 140°05'1 0.5
2014-Jul-26 05:33N 35°37' E 140°05'0 0.0
2014-Jul-26 04:33N 35°37' E 140°05'0 0.0
2014-Jul-26 03:33N 35°37' E 140°05'0 0.2
2014-Jul-26 02:34N 35°37' E 140°05'6 6.0
2014-Jul-26 01:34N 35°39' E 139°58'2 2.0
2014-Jul-26 00:32N 35°41' E 139°57'0 0.0
2014-Jul-25 23:32N 35°41' E 139°57'0 0.1
2014-Jul-25 22:32N 35°41' E 139°57'4 3.7
2014-Jul-25 21:29N 35°37' E 139°58'0 0.0
2014-Jul-25 20:29N 35°37' E 139°58'0 0.0
2014-Jul-25 19:32N 35°37' E 139°58'0 0.0
2014-Jul-25 18:29N 35°37' E 139°58'0 0.0
2014-Jul-25 17:32N 35°37' E 139°58'0 0.0
2014-Jul-25 16:32N 35°37' E 139°58'0 0.0
2014-Jul-25 15:23N 35°37' E 139°58'0 0.0
2014-Jul-25 14:22N 35°37' E 139°58'5 5.6
2014-Jul-25 13:33N 35°33' E 139°55'1111.3
2014-Jul-25 12:33N 35°24' E 139°46'1010.0
2014-Jul-25 11:33N 35°14' E 139°47'1111.0
2014-Jul-25 10:33N 35°04' E 139°42'1312.3
2014-Jul-25 09:28N 34°56' E 139°29'228 9.5
2014-Jul-24 09:31N 34°01' E 135°01'1010.6
2014-Jul-24 08:33N 34°11' E 134°59'1010.2
2014-Jul-24 07:32N 34°21' E 134°59'1110.7
2014-Jul-24 06:32N 34°32' E 135°02'7 6.8
2014-Jul-24 05:33N 34°35' E 134°55'  

Dump ship's entire track history